createdAt,value
2022-08-29T00:01:25.972Z,8.43
2022-08-29T00:03:29.127Z,9.20
2022-08-29T00:05:35.080Z,8.97
2022-08-29T00:07:38.870Z,8.23
2022-08-29T00:09:41.569Z,8.60
2022-08-29T00:11:46.439Z,9.20
2022-08-29T00:13:49.908Z,9.53
2022-08-29T00:15:52.580Z,10.50
2022-08-29T00:17:55.278Z,9.00
2022-08-29T00:19:57.945Z,9.77
2022-08-29T00:22:00.655Z,9.80
2022-08-29T00:24:03.758Z,9.23
2022-08-29T00:26:06.685Z,9.97
2022-08-29T00:28:10.836Z,9.90
2022-08-29T00:30:15.225Z,10.13
2022-08-29T00:32:17.867Z,10.57
2022-08-29T00:34:20.786Z,9.00
2022-08-29T00:36:23.562Z,10.17
2022-08-29T00:38:27.999Z,10.20
2022-08-29T00:40:34.542Z,10.30
2022-08-29T00:42:37.324Z,9.83
2022-08-29T00:44:41.459Z,10.23
2022-08-29T00:46:49.336Z,9.37
2022-08-29T00:48:56.916Z,9.33
2022-08-29T00:51:02.972Z,9.57
2022-08-29T00:53:09.515Z,9.90
2022-08-29T00:55:20.249Z,10.27
2022-08-29T00:57:24.639Z,10.30
2022-08-29T00:59:32.688Z,10.10
2022-08-29T01:01:36.998Z,10.23
2022-08-29T01:03:42.996Z,10.40
2022-08-29T01:05:46.208Z,10.00
2022-08-29T01:07:51.875Z,11.20
2022-08-29T01:09:55.304Z,11.20
2022-08-29T01:12:15.574Z,9.97
2022-08-29T01:14:19.833Z,10.40
2022-08-29T01:16:24.277Z,10.70
2022-08-29T01:18:31.375Z,10.33
2022-08-29T01:20:41.377Z,9.50
2022-08-29T01:23:01.787Z,9.70
2022-08-29T01:25:09.941Z,10.13
2022-08-29T01:27:15.201Z,9.57
2022-08-29T01:29:18.490Z,9.40
2022-08-29T01:31:37.744Z,9.67
2022-08-29T01:33:48.467Z,10.17
2022-08-29T01:35:52.899Z,10.00
2022-08-29T01:37:56.154Z,9.87
2022-08-29T01:39:59.017Z,10.53
2022-08-29T01:42:05.477Z,10.90
2022-08-29T01:44:11.202Z,10.30
2022-08-29T01:46:18.423Z,10.30
2022-08-29T01:48:21.652Z,10.83
2022-08-29T01:50:24.332Z,11.23
2022-08-29T01:52:27.000Z,10.97
2022-08-29T01:54:30.355Z,11.00
2022-08-29T01:56:36.271Z,12.00
2022-08-29T01:58:40.332Z,12.73
2022-08-29T02:00:43.452Z,12.27
2022-08-29T02:02:46.187Z,12.43
2022-08-29T02:04:49.995Z,13.00
2022-08-29T02:06:52.769Z,13.70
2022-08-29T02:08:55.840Z,13.33
2022-08-29T02:10:59.724Z,13.60
2022-08-29T02:13:02.403Z,14.00
2022-08-29T02:15:08.444Z,14.03
2022-08-29T02:17:11.261Z,14.70
2022-08-29T02:19:14.026Z,13.80
2022-08-29T02:21:19.682Z,13.60
2022-08-29T02:23:30.982Z,13.60
2022-08-29T02:25:43.543Z,13.87
2022-08-29T02:27:46.245Z,13.97
2022-08-29T02:29:48.987Z,14.90
2022-08-29T02:31:54.925Z,14.60
2022-08-29T02:33:57.956Z,14.70
2022-08-29T02:36:03.369Z,15.07
2022-08-29T02:38:07.562Z,15.43
2022-08-29T02:40:11.207Z,14.30
2022-08-29T02:42:13.874Z,15.70
2022-08-29T02:44:16.543Z,14.93
2022-08-29T02:46:21.307Z,16.07
2022-08-29T02:48:26.159Z,15.50
2022-08-29T02:50:29.550Z,16.97
2022-08-29T02:52:37.127Z,14.90
2022-08-29T02:54:40.015Z,16.83
2022-08-29T02:56:42.718Z,16.70
2022-08-29T02:58:45.398Z,14.50
2022-08-29T03:00:48.143Z,14.20
2022-08-29T03:02:50.980Z,14.73
2022-08-29T03:04:55.016Z,15.13
2022-08-29T03:06:57.836Z,14.60
2022-08-29T03:09:00.688Z,14.37
2022-08-29T03:11:03.637Z,14.23
2022-08-29T03:13:06.850Z,15.30
2022-08-29T03:15:10.612Z,13.83
2022-08-29T03:17:13.362Z,13.70
2022-08-29T03:19:16.133Z,14.37
2022-08-29T03:21:22.896Z,15.13
2022-08-29T03:23:25.589Z,13.57
2022-08-29T03:25:28.244Z,12.80
2022-08-29T03:27:31.565Z,14.10
2022-08-29T03:29:35.788Z,14.57
2022-08-29T03:31:38.497Z,14.10
2022-08-29T03:33:41.838Z,14.00
2022-08-29T03:35:44.522Z,14.67
2022-08-29T03:37:48.720Z,13.73
2022-08-29T03:39:51.398Z,13.57
2022-08-29T03:41:54.488Z,13.70
2022-08-29T03:43:58.806Z,14.50
2022-08-29T03:46:01.460Z,14.57
2022-08-29T03:48:04.754Z,13.30
2022-08-29T03:50:08.354Z,13.20
2022-08-29T03:52:11.421Z,14.10
2022-08-29T03:54:15.479Z,13.83
2022-08-29T03:56:18.822Z,13.80
2022-08-29T03:58:21.842Z,13.70
2022-08-29T04:00:24.938Z,12.80
2022-08-29T04:02:27.760Z,14.13
2022-08-29T04:04:48.029Z,12.57
2022-08-29T04:06:51.118Z,13.40
2022-08-29T04:08:53.860Z,14.90
2022-08-29T04:10:58.027Z,12.67
2022-08-29T04:13:01.514Z,12.40
2022-08-29T04:15:05.789Z,13.43
2022-08-29T04:17:10.177Z,13.07
2022-08-29T04:19:12.830Z,13.70
2022-08-29T04:21:16.447Z,12.97
2022-08-29T04:23:19.122Z,12.90
2022-08-29T04:25:23.571Z,13.07
2022-08-29T04:27:27.607Z,12.67
2022-08-29T04:29:30.271Z,13.00
2022-08-29T04:31:33.150Z,14.20
2022-08-29T04:33:35.860Z,13.03
2022-08-29T04:35:40.029Z,14.13
2022-08-29T04:37:43.971Z,13.93
2022-08-29T04:39:46.613Z,14.23
2022-08-29T04:41:49.273Z,14.30
2022-08-29T04:43:53.473Z,13.87
2022-08-29T04:45:56.414Z,15.63
2022-08-29T04:48:03.059Z,16.53
2022-08-29T04:50:07.740Z,17.03
2022-08-29T04:52:10.796Z,16.97
2022-08-29T04:54:13.525Z,17.40
2022-08-29T04:56:16.491Z,17.67
2022-08-29T04:58:19.166Z,16.87
2022-08-29T05:00:27.501Z,17.90
2022-08-29T05:02:30.243Z,16.80
2022-08-29T05:04:32.979Z,17.40
2022-08-29T05:06:35.672Z,17.60
2022-08-29T05:08:40.347Z,17.27
2022-08-29T05:10:47.579Z,17.67
2022-08-29T05:12:50.606Z,16.53
2022-08-29T05:14:54.626Z,15.97
2022-08-29T05:16:58.668Z,16.13
2022-08-29T05:19:01.306Z,16.07
2022-08-29T05:21:04.816Z,15.50
2022-08-29T05:23:07.541Z,16.27
2022-08-29T05:25:15.867Z,16.00
2022-08-29T05:27:22.977Z,16.77
2022-08-29T05:29:25.775Z,16.57
2022-08-29T05:31:28.599Z,15.93
2022-08-29T05:33:33.378Z,15.60
2022-08-29T05:35:37.544Z,16.67
2022-08-29T05:37:40.267Z,17.00
2022-08-29T05:39:44.319Z,15.20
2022-08-29T05:41:46.934Z,16.70
2022-08-29T05:43:49.834Z,16.00
2022-08-29T05:46:03.567Z,16.90
2022-08-29T05:48:09.403Z,16.50
2022-08-29T05:50:16.923Z,15.20
2022-08-29T05:52:21.468Z,16.07
2022-08-29T05:54:30.188Z,16.03
2022-08-29T05:56:33.199Z,15.27
2022-08-29T05:58:35.859Z,16.47
2022-08-29T06:00:39.659Z,15.10
2022-08-29T06:02:43.765Z,16.07
2022-08-29T06:04:46.844Z,16.50
2022-08-29T06:06:51.676Z,15.73
2022-08-29T06:08:55.547Z,15.93
2022-08-29T06:10:58.404Z,14.97
2022-08-29T06:13:01.240Z,16.77
2022-08-29T06:15:04.627Z,16.07
2022-08-29T06:17:09.298Z,16.80
2022-08-29T06:19:12.606Z,15.53
2022-08-29T06:21:15.819Z,15.17
2022-08-29T06:23:19.905Z,16.40
2022-08-29T06:25:39.542Z,16.13
2022-08-29T06:27:42.924Z,16.90
2022-08-29T06:29:45.656Z,16.90
2022-08-29T06:31:48.405Z,16.63
2022-08-29T06:33:52.788Z,15.07
2022-08-29T06:35:55.500Z,16.30
2022-08-29T06:37:58.221Z,15.77
2022-08-29T06:40:02.266Z,15.43
2022-08-29T06:42:05.398Z,14.70
2022-08-29T06:44:08.957Z,15.03
2022-08-29T06:46:21.933Z,15.70
2022-08-29T06:48:28.942Z,15.47
2022-08-29T06:50:32.324Z,14.93
2022-08-29T06:52:35.854Z,14.63
2022-08-29T06:54:38.643Z,15.40
2022-08-29T06:56:43.906Z,15.13
2022-08-29T06:58:47.610Z,15.40
2022-08-29T07:00:50.389Z,15.03
2022-08-29T07:02:53.690Z,14.10
2022-08-29T07:04:56.466Z,13.90
2022-08-29T07:06:59.143Z,13.10
2022-08-29T07:09:01.859Z,13.03
2022-08-29T07:11:04.601Z,12.97
2022-08-29T07:13:08.724Z,13.70
2022-08-29T07:15:12.191Z,11.83
2022-08-29T07:17:24.826Z,11.90
2022-08-29T07:19:28.781Z,13.10
2022-08-29T07:21:31.591Z,13.10
2022-08-29T07:23:34.370Z,13.87
2022-08-29T07:25:37.079Z,13.43
2022-08-29T07:27:39.777Z,13.57
2022-08-29T07:29:45.646Z,12.63
2022-08-29T07:31:51.574Z,12.43
2022-08-29T07:34:02.269Z,12.93
2022-08-29T07:36:06.626Z,12.57
2022-08-29T07:38:09.344Z,11.07
2022-08-29T07:40:18.101Z,11.10
2022-08-29T07:42:20.880Z,11.87
2022-08-29T07:44:23.689Z,11.17
2022-08-29T07:46:27.851Z,12.07
2022-08-29T07:48:30.617Z,11.00
2022-08-29T07:50:33.427Z,12.83
2022-08-29T07:52:36.673Z,11.00
2022-08-29T07:54:39.331Z,11.30
2022-08-29T07:56:42.441Z,12.13
2022-08-29T07:58:45.531Z,12.10
2022-08-29T08:00:48.196Z,12.43
2022-08-29T08:02:52.315Z,11.33
2022-08-29T08:04:55.043Z,12.10
2022-08-29T08:06:57.654Z,12.87
2022-08-29T08:09:00.454Z,13.63
2022-08-29T08:11:04.932Z,12.40
2022-08-29T08:13:07.769Z,12.93
2022-08-29T08:15:11.672Z,13.03
2022-08-29T08:17:14.359Z,13.00
2022-08-29T08:19:19.239Z,11.70
2022-08-29T08:21:22.373Z,12.97
2022-08-29T08:23:25.038Z,12.40
2022-08-29T08:25:27.846Z,13.17
2022-08-29T08:27:30.546Z,13.40
2022-08-29T08:29:33.378Z,11.50
2022-08-29T08:31:36.148Z,13.37
2022-08-29T08:33:40.534Z,13.27
2022-08-29T08:35:46.807Z,12.20
2022-08-29T08:37:49.878Z,14.27
2022-08-29T08:39:57.045Z,12.00
2022-08-29T08:42:07.028Z,11.90
2022-08-29T08:44:16.779Z,12.13
2022-08-29T08:46:27.909Z,12.97
2022-08-29T08:48:37.872Z,11.93
2022-08-29T08:50:54.316Z,12.20
2022-08-29T08:53:04.372Z,9.70
2022-08-29T08:55:28.749Z,9.97
2022-08-29T08:57:39.650Z,10.20
2022-08-29T08:59:45.376Z,10.50
2022-08-29T09:02:00.306Z,10.30
2022-08-29T09:04:30.547Z,9.83
2022-08-29T09:06:45.874Z,9.43
2022-08-29T09:08:55.680Z,8.40
2022-08-29T09:11:04.100Z,8.80
2022-08-29T09:13:21.422Z,10.30
2022-08-29T09:15:26.878Z,10.00
2022-08-29T09:17:37.041Z,8.50
2022-08-29T09:19:41.280Z,8.80
2022-08-29T09:21:49.879Z,9.27
2022-08-29T09:23:57.532Z,8.73
2022-08-29T09:26:00.341Z,8.30
2022-08-29T09:28:05.890Z,8.00
2022-08-29T09:30:12.316Z,9.27
2022-08-29T09:32:21.644Z,9.00
2022-08-29T09:34:57.138Z,8.33
2022-08-29T09:36:59.561Z,8.20
2022-08-29T09:39:16.181Z,8.60
2022-08-29T09:41:28.336Z,8.03
2022-08-29T09:43:48.209Z,8.17
2022-08-29T09:46:23.100Z,8.17
2022-08-29T09:48:25.892Z,8.10
2022-08-29T09:50:28.607Z,7.97
2022-08-29T09:52:33.232Z,8.77
2022-08-29T09:54:35.964Z,8.23
2022-08-29T09:56:48.174Z,8.20
2022-08-29T09:59:00.719Z,9.07
2022-08-29T10:01:09.652Z,9.13
2022-08-29T10:03:22.501Z,7.43
2022-08-29T10:05:36.108Z,7.20
2022-08-29T10:07:49.570Z,7.70
2022-08-29T10:10:00.242Z,7.37
2022-08-29T10:12:10.947Z,7.53
2022-08-29T10:14:20.082Z,6.90
2022-08-29T10:16:38.096Z,8.30
2022-08-29T10:18:48.051Z,7.40
2022-08-29T10:21:01.073Z,7.90
2022-08-29T10:23:11.729Z,7.80
2022-08-29T10:25:20.748Z,7.07
2022-08-29T10:27:33.057Z,6.63
2022-08-29T10:29:55.153Z,6.80
2022-08-29T10:32:10.257Z,6.40
2022-08-29T10:34:36.215Z,5.90
2022-08-29T10:36:41.064Z,7.10
2022-08-29T10:38:51.137Z,7.07
2022-08-29T10:40:58.486Z,7.03
2022-08-29T10:43:24.499Z,6.27
2022-08-29T10:45:36.143Z,6.93
2022-08-29T10:47:41.554Z,6.10
2022-08-29T10:49:59.774Z,6.73
2022-08-29T10:52:08.738Z,6.97
2022-08-29T10:54:23.226Z,6.30
2022-08-29T10:56:31.510Z,6.53
2022-08-29T10:58:44.989Z,7.23
2022-08-29T11:00:52.684Z,7.10
2022-08-29T11:03:05.792Z,7.13
2022-08-29T11:05:13.096Z,7.27
2022-08-29T11:07:21.478Z,6.33
2022-08-29T11:09:30.325Z,7.30
2022-08-29T11:11:36.339Z,7.30
2022-08-29T11:13:43.584Z,7.97
2022-08-29T11:15:57.587Z,8.60
2022-08-29T11:18:08.001Z,7.17
2022-08-29T11:20:14.455Z,8.17
2022-08-29T11:22:21.129Z,7.90
2022-08-29T11:24:31.667Z,7.53
2022-08-29T11:26:50.420Z,7.70
2022-08-29T11:28:59.290Z,7.43
2022-08-29T11:31:12.049Z,7.80
2022-08-29T11:33:26.796Z,7.23
2022-08-29T11:35:41.217Z,7.40
2022-08-29T11:38:17.911Z,7.10
2022-08-29T11:43:03.247Z,7.10
2022-08-29T11:45:23.813Z,7.53
2022-08-29T11:47:41.531Z,6.60
2022-08-29T11:49:50.031Z,6.80
2022-08-29T11:51:56.164Z,7.30
2022-08-29T11:54:39.133Z,7.40
2022-08-29T11:56:43.311Z,7.10
2022-08-29T11:58:48.712Z,6.77
2022-08-29T12:00:54.059Z,6.80
2022-08-29T12:02:56.870Z,6.70
2022-08-29T12:05:01.411Z,6.97
2022-08-29T12:07:05.060Z,6.80
2022-08-29T12:09:25.332Z,6.33
2022-08-29T12:12:13.553Z,6.87
2022-08-29T12:14:36.961Z,6.47
2022-08-29T12:16:51.154Z,7.00
2022-08-29T12:18:55.479Z,7.10
2022-08-29T12:20:58.694Z,7.33
2022-08-29T12:23:04.539Z,6.83
2022-08-29T12:25:34.831Z,6.97
2022-08-29T12:28:01.978Z,6.60
2022-08-29T12:30:10.436Z,6.00
2022-08-29T12:32:40.010Z,6.23
2022-08-29T12:35:00.310Z,6.27
2022-08-29T12:37:28.616Z,6.10
2022-08-29T12:40:00.221Z,6.40
2022-08-29T12:42:19.934Z,6.83
2022-08-29T12:44:28.586Z,6.77
2022-08-29T12:46:37.899Z,6.80
2022-08-29T12:48:57.548Z,6.13
2022-08-29T12:51:02.542Z,7.03
2022-08-29T12:53:07.629Z,6.70
2022-08-29T12:55:22.803Z,6.80
2022-08-29T12:57:35.932Z,6.77
2022-08-29T12:59:46.079Z,7.00
2022-08-29T13:01:54.344Z,7.10
2022-08-29T13:04:07.315Z,6.50
2022-08-29T13:06:14.937Z,6.40
2022-08-29T13:08:34.014Z,6.43
2022-08-29T13:10:38.144Z,6.73
2022-08-29T13:12:40.955Z,6.70
2022-08-29T13:14:52.493Z,6.80
2022-08-29T13:16:56.639Z,7.17
2022-08-29T13:19:10.488Z,6.10
2022-08-29T13:21:20.070Z,6.40
2022-08-29T13:23:29.002Z,6.30
2022-08-29T13:25:32.483Z,6.13
2022-08-29T13:27:35.268Z,6.40
2022-08-29T13:29:39.942Z,6.63
2022-08-29T13:31:42.847Z,7.30
2022-08-29T13:34:10.322Z,7.03
2022-08-29T13:36:38.057Z,6.37
2022-08-29T13:38:40.825Z,5.83
2022-08-29T13:40:46.261Z,5.90
2022-08-29T13:42:49.497Z,6.33
2022-08-29T13:45:08.957Z,6.17
2022-08-29T13:47:16.299Z,6.37
2022-08-29T13:49:22.657Z,6.50
2022-08-29T13:51:25.535Z,6.57
2022-08-29T13:53:28.360Z,6.67
2022-08-29T13:55:31.236Z,6.53
2022-08-29T13:57:34.764Z,6.80
2022-08-29T13:59:38.484Z,6.60
2022-08-29T14:04:34.188Z,7.07
2022-08-29T14:06:29.122Z,6.30
2022-08-29T14:08:32.584Z,6.30
2022-08-29T14:10:35.473Z,6.70
2022-08-29T14:12:38.309Z,6.57
2022-08-29T14:14:41.038Z,7.00
2022-08-29T14:16:43.757Z,5.97
2022-08-29T14:18:46.763Z,6.37
2022-08-29T14:20:49.477Z,6.07
2022-08-29T14:22:53.531Z,6.40
2022-08-29T14:24:56.323Z,6.77
2022-08-29T14:27:01.576Z,6.50
2022-08-29T14:29:05.045Z,6.40
2022-08-29T14:31:08.156Z,6.73
2022-08-29T14:33:10.954Z,6.43
2022-08-29T14:35:25.822Z,6.80
2022-08-29T14:37:30.056Z,6.03
2022-08-29T14:39:34.222Z,6.00
2022-08-29T14:41:36.947Z,6.20
2022-08-29T14:43:40.063Z,5.90
2022-08-29T14:45:42.935Z,6.90
2022-08-29T14:47:47.177Z,6.80
2022-08-29T14:49:51.355Z,6.30
2022-08-29T14:51:54.342Z,6.20
2022-08-29T14:53:57.304Z,6.70
2022-08-29T14:56:02.353Z,6.97
2022-08-29T14:58:05.740Z,5.90
2022-08-29T15:00:12.714Z,6.07
2022-08-29T15:02:15.933Z,6.17
2022-08-29T15:04:18.736Z,6.07
2022-08-29T15:06:24.702Z,6.13
2022-08-29T15:08:27.392Z,6.20
2022-08-29T15:10:31.630Z,6.53
2022-08-29T15:12:36.029Z,6.47
2022-08-29T15:14:38.792Z,6.13
2022-08-29T15:16:42.795Z,6.30
2022-08-29T15:21:08.209Z,6.37
2022-08-29T15:23:12.183Z,6.27
2022-08-29T15:25:16.809Z,6.53
2022-08-29T15:27:24.910Z,6.77
2022-08-29T15:29:35.097Z,6.63
2022-08-29T15:31:37.950Z,6.30
2022-08-29T15:33:41.218Z,6.50
2022-08-29T15:35:44.396Z,6.50
2022-08-29T15:37:47.442Z,6.60
2022-08-29T15:39:54.736Z,6.60
2022-08-29T15:41:59.695Z,6.00
2022-08-29T15:44:02.783Z,6.13
2022-08-29T15:46:08.152Z,6.23
2022-08-29T15:48:11.729Z,6.57
2022-08-29T15:50:15.343Z,6.40
2022-08-29T15:52:18.075Z,6.47
2022-08-29T15:54:21.210Z,6.53
2022-08-29T15:56:24.058Z,6.90
2022-08-29T15:58:28.367Z,6.57
2022-08-29T16:00:31.847Z,6.80
2022-08-29T16:02:36.040Z,6.87
2022-08-29T16:04:42.747Z,7.27
2022-08-29T16:06:45.793Z,6.33
2022-08-29T16:08:48.495Z,6.63
2022-08-29T16:10:58.174Z,6.73
2022-08-29T16:13:01.152Z,6.43
2022-08-29T16:15:09.615Z,6.20
2022-08-29T16:17:13.298Z,6.47
2022-08-29T16:19:18.746Z,6.70
2022-08-29T16:21:23.939Z,5.90
2022-08-29T16:23:26.723Z,6.30
2022-08-29T16:25:30.976Z,6.60
2022-08-29T16:27:34.020Z,6.30
2022-08-29T16:29:36.729Z,6.37
2022-08-29T16:31:39.511Z,6.47
2022-08-29T16:33:42.961Z,6.27
2022-08-29T16:35:47.407Z,6.20
2022-08-29T16:38:02.169Z,6.90
2022-08-29T16:40:07.951Z,5.63
2022-08-29T16:42:12.058Z,6.90
2022-08-29T16:44:14.896Z,6.43
2022-08-29T16:46:18.319Z,6.63
2022-08-29T16:48:21.287Z,6.33
2022-08-29T16:50:24.467Z,6.00
2022-08-29T16:52:28.721Z,6.77
2022-08-29T16:54:33.195Z,6.60
2022-08-29T16:56:36.189Z,6.33
2022-08-29T16:58:56.532Z,5.67
2022-08-29T17:00:59.327Z,6.50
2022-08-29T17:03:02.208Z,6.07
2022-08-29T17:05:05.583Z,7.27
2022-08-29T17:07:08.411Z,5.83
2022-08-29T17:09:11.363Z,6.50
2022-08-29T17:11:13.030Z,6.20
2022-08-29T17:13:14.986Z,6.20
2022-08-29T17:15:16.858Z,6.43
2022-08-29T17:17:19.707Z,6.70
2022-08-29T17:19:23.644Z,6.70
2022-08-29T17:21:27.014Z,6.70
2022-08-29T17:23:31.079Z,6.40
2022-08-29T17:25:35.585Z,5.97
2022-08-29T17:27:38.262Z,5.87
2022-08-29T17:29:43.093Z,6.77
2022-08-29T17:31:46.189Z,7.23
2022-08-29T17:33:49.334Z,6.60
2022-08-29T17:35:52.060Z,6.77
2022-08-29T17:37:54.938Z,7.20
2022-08-29T17:39:58.572Z,7.07
2022-08-29T17:42:04.917Z,6.97
2022-08-29T17:44:09.889Z,6.80
2022-08-29T17:46:12.668Z,6.77
2022-08-29T17:48:15.591Z,6.60
2022-08-29T17:50:18.579Z,6.63
2022-08-29T17:52:21.552Z,7.03
2022-08-29T17:54:25.630Z,6.80
2022-08-29T17:56:38.890Z,6.67
2022-08-29T17:58:49.279Z,6.67
2022-08-29T18:00:53.934Z,7.23
2022-08-29T18:02:56.861Z,7.33
2022-08-29T18:04:59.625Z,6.90
2022-08-29T18:07:03.047Z,6.67
2022-08-29T18:09:06.677Z,7.60
2022-08-29T18:11:12.476Z,7.00
2022-08-29T18:13:18.569Z,7.10
2022-08-29T18:15:25.390Z,7.10
2022-08-29T18:17:28.613Z,7.33
2022-08-29T18:19:31.324Z,7.07
2022-08-29T18:21:34.719Z,7.47
2022-08-29T18:23:38.113Z,6.50
2022-08-29T18:25:40.883Z,7.43
2022-08-29T18:27:43.988Z,8.10
2022-08-29T18:29:46.780Z,7.40
2022-08-29T18:31:50.843Z,7.50
2022-08-29T18:34:01.611Z,8.17
2022-08-29T18:36:07.181Z,7.97
2022-08-29T18:38:10.445Z,7.73
2022-08-29T18:40:13.609Z,7.03
2022-08-29T18:42:30.812Z,7.47
2022-08-29T18:44:41.149Z,8.00
2022-08-29T18:46:47.821Z,7.83
2022-08-29T18:48:52.752Z,8.03
2022-08-29T18:50:55.501Z,7.87
2022-08-29T18:52:58.228Z,7.73
2022-08-29T18:55:00.930Z,7.70
2022-08-29T18:57:03.805Z,7.37
2022-08-29T18:59:06.530Z,8.10
2022-08-29T19:01:13.758Z,7.73
2022-08-29T19:03:17.140Z,7.27
2022-08-29T19:05:22.044Z,7.37
2022-08-29T19:07:24.733Z,7.60
2022-08-29T19:09:27.504Z,7.53
2022-08-29T19:11:30.218Z,7.23
2022-08-29T19:13:33.150Z,7.67
2022-08-29T19:15:41.412Z,7.77
2022-08-29T19:17:44.658Z,8.30
2022-08-29T19:20:10.168Z,7.53
2022-08-29T19:22:14.646Z,7.40
2022-08-29T19:24:17.349Z,7.97
2022-08-29T19:26:22.679Z,7.60
2022-08-29T19:28:25.601Z,7.77
2022-08-29T19:30:28.466Z,6.97
2022-08-29T19:32:31.147Z,7.17
2022-08-29T19:34:34.043Z,7.13
2022-08-29T19:36:36.869Z,7.63
2022-08-29T19:38:42.363Z,7.00
2022-08-29T19:40:45.822Z,7.13
2022-08-29T19:42:49.377Z,7.57
2022-08-29T19:44:52.103Z,7.53
2022-08-29T19:46:55.224Z,7.83
2022-08-29T19:48:58.035Z,7.00
2022-08-29T19:51:00.787Z,7.93
2022-08-29T19:53:03.525Z,7.30
2022-08-29T19:55:11.009Z,7.47
2022-08-29T19:57:14.646Z,7.20
2022-08-29T19:59:18.115Z,7.87
2022-08-29T20:01:21.541Z,7.63
2022-08-29T20:03:24.237Z,6.80
2022-08-29T20:05:27.148Z,6.77
2022-08-29T20:07:30.657Z,7.23
2022-08-29T20:09:34.446Z,7.23
2022-08-29T20:11:43.443Z,6.80
2022-08-29T20:13:50.474Z,6.77
2022-08-29T20:15:54.092Z,6.67
2022-08-29T20:17:57.179Z,6.30
2022-08-29T20:19:59.937Z,8.07
2022-08-29T20:22:02.749Z,7.00
2022-08-29T20:24:07.360Z,7.00
2022-08-29T20:26:10.094Z,6.37
2022-08-29T20:28:15.634Z,7.20
2022-08-29T20:30:22.890Z,7.27
2022-08-29T20:32:25.837Z,7.40
2022-08-29T20:34:30.386Z,7.40
2022-08-29T20:36:50.674Z,7.10
2022-08-29T20:38:53.360Z,6.90
2022-08-29T20:40:56.068Z,6.63
2022-08-29T20:42:58.997Z,6.90
2022-08-29T20:45:03.061Z,7.10
2022-08-29T20:47:07.064Z,6.50
2022-08-29T20:49:10.517Z,6.90
2022-08-29T20:51:13.303Z,6.93
2022-08-29T20:53:31.928Z,7.10
2022-08-29T20:55:35.808Z,6.80
2022-08-29T20:57:39.348Z,6.43
2022-08-29T20:59:42.759Z,6.80
2022-08-29T21:01:47.920Z,7.00
2022-08-29T21:04:08.356Z,7.20
2022-08-29T21:06:11.943Z,7.20
2022-08-29T21:08:16.772Z,6.97
2022-08-29T21:10:19.533Z,6.93
2022-08-29T21:12:22.317Z,7.50
2022-08-29T21:14:30.369Z,7.63
2022-08-29T21:16:33.203Z,7.20
2022-08-29T21:18:37.391Z,6.77
2022-08-29T21:20:54.028Z,6.93
2022-08-29T21:22:59.556Z,7.00
2022-08-29T21:25:02.365Z,7.23
2022-08-29T21:27:05.402Z,7.00
2022-08-29T21:29:08.928Z,7.67
2022-08-29T21:31:15.378Z,6.97
2022-08-29T21:33:18.506Z,6.90
2022-08-29T21:35:24.334Z,6.83
2022-08-29T21:37:27.067Z,7.10
2022-08-29T21:39:30.388Z,6.50
2022-08-29T21:41:34.595Z,5.90
2022-08-29T21:43:37.410Z,6.40
2022-08-29T21:45:40.048Z,6.87
2022-08-29T21:47:42.783Z,6.80
2022-08-29T21:49:45.579Z,7.13
2022-08-29T21:51:50.058Z,6.80
2022-08-29T21:53:55.437Z,6.83
2022-08-29T21:55:58.150Z,6.80
2022-08-29T21:58:01.697Z,7.03
2022-08-29T22:00:07.538Z,6.90
2022-08-29T22:02:10.448Z,6.60
2022-08-29T22:04:18.877Z,6.93
2022-08-29T22:06:33.203Z,6.67
2022-08-29T22:08:37.725Z,6.40
2022-08-29T22:10:40.921Z,6.83
2022-08-29T22:12:43.732Z,6.20
2022-08-29T22:15:03.811Z,7.17
2022-08-29T22:17:06.647Z,6.00
2022-08-29T22:19:12.927Z,5.50
2022-08-29T22:21:16.456Z,6.50
2022-08-29T22:23:20.316Z,5.80
2022-08-29T22:25:25.042Z,5.67
2022-08-29T22:27:27.763Z,5.90
2022-08-29T22:29:30.424Z,5.67
2022-08-29T22:31:33.304Z,5.30
2022-08-29T22:33:36.118Z,5.83
2022-08-29T22:35:39.379Z,6.17
2022-08-29T22:37:42.059Z,5.60
2022-08-29T22:39:44.698Z,6.10
2022-08-29T22:41:48.811Z,5.97
2022-08-29T22:44:11.347Z,6.10
2022-08-29T22:46:18.016Z,6.00
2022-08-29T22:48:20.794Z,6.60
2022-08-29T22:50:25.223Z,6.27
2022-08-29T22:52:27.999Z,6.10
2022-08-29T22:54:36.644Z,6.37
2022-08-29T22:56:41.582Z,5.97
2022-08-29T22:58:45.647Z,6.60
2022-08-29T23:00:48.659Z,6.50
2022-08-29T23:02:51.861Z,6.77
2022-08-29T23:04:54.604Z,6.87
2022-08-29T23:06:57.432Z,6.77
2022-08-29T23:09:00.404Z,7.40
2022-08-29T23:11:03.311Z,6.67
2022-08-29T23:13:05.974Z,6.70
2022-08-29T23:15:12.939Z,6.80
2022-08-29T23:17:17.143Z,6.67
2022-08-29T23:19:19.906Z,6.90
2022-08-29T23:21:23.764Z,7.33
2022-08-29T23:23:26.427Z,6.50
2022-08-29T23:25:29.253Z,6.80
2022-08-29T23:27:33.397Z,7.10
2022-08-29T23:29:41.992Z,6.60
2022-08-29T23:31:46.382Z,6.40
2022-08-29T23:33:49.486Z,7.03
2022-08-29T23:35:52.332Z,7.40
2022-08-29T23:37:55.087Z,7.70
2022-08-29T23:39:57.841Z,7.40
2022-08-29T23:42:00.585Z,6.53
2022-08-29T23:44:03.678Z,7.47
2022-08-29T23:46:07.342Z,7.10
2022-08-29T23:48:11.443Z,7.77
2022-08-29T23:50:14.917Z,7.60
2022-08-29T23:52:17.882Z,6.87
2022-08-29T23:54:20.560Z,7.13
2022-08-29T23:56:23.411Z,7.20
2022-08-29T23:58:26.114Z,7.40
